Time;durP1;ratioP1;P1;durP2;ratioP2;P2;SDS_P1;SDS_P2;PMS_P1;PMS_P2;Temp;Humidity;BMP_temperature;BMP_pressure;BME280_temperature;BME280_humidity;BME280_pressure;Samples;Min_cycle;Max_cycle;Signal;HPM_P1;HPM_P2
2023/08/06 00:01:00;;;;;;;6.22;5.30;;;15.50;99.90;;;;;;5014118;28;20428;-76
2023/08/06 00:03:26;;;;;;;5.63;5.05;;;15.60;99.90;;;;;;5013051;28;21195;-73
2023/08/06 00:05:53;;;;;;;6.05;5.00;;;15.50;99.90;;;;;;5013023;28;20396;-74
2023/08/06 00:08:19;;;;;;;5.80;5.03;;;15.50;99.90;;;;;;5013553;28;20037;-74
2023/08/06 00:10:48;;;;;;;5.00;4.55;;;15.50;99.90;;;;;;5012922;28;21020;-75
2023/08/06 00:13:14;;;;;;;5.40;4.90;;;15.50;99.90;;;;;;5028826;28;20021;-73
2023/08/06 00:15:41;;;;;;;5.43;4.93;;;15.60;99.90;;;;;;4996995;28;20408;-75
2023/08/06 00:18:07;;;;;;;6.47;5.07;;;15.50;99.90;;;;;;5014242;28;20048;-73
2023/08/06 00:20:33;;;;;;;6.03;4.65;;;15.60;99.90;;;;;;4995151;28;20443;-77
2023/08/06 00:23:00;;;;;;;6.60;5.30;;;15.60;99.90;;;;;;5012248;28;20051;-76
2023/08/06 00:25:26;;;;;;;6.72;5.95;;;15.60;99.90;;;;;;5012669;28;20037;-76
2023/08/06 00:27:53;;;;;;;5.40;4.90;;;15.60;99.90;;;;;;4997062;28;20048;-76
2023/08/06 00:30:19;;;;;;;6.50;5.82;;;15.60;99.90;;;;;;5014389;28;20033;-77
2023/08/06 00:32:46;;;;;;;6.50;5.90;;;15.60;99.90;;;;;;5013352;28;20021;-77
2023/08/06 00:35:13;;;;;;;6.03;5.45;;;15.50;99.90;;;;;;5014165;28;20040;-73
2023/08/06 00:37:40;;;;;;;8.93;6.82;;;15.50;99.90;;;;;;5028736;28;20037;-73
2023/08/06 00:40:08;;;;;;;7.65;6.50;;;15.50;99.90;;;;;;5014100;28;20033;-75
2023/08/06 00:42:34;;;;;;;8.38;5.57;;;15.50;99.90;;;;;;5027428;28;20026;-75
2023/08/06 00:45:02;;;;;;;6.50;4.97;;;15.50;99.90;;;;;;4996595;28;20052;-75
2023/08/06 00:47:28;;;;;;;6.10;5.50;;;15.50;99.90;;;;;;5012875;28;20041;-77
2023/08/06 00:49:55;;;;;;;6.38;5.03;;;15.50;99.90;;;;;;4996347;28;20571;-76
2023/08/06 00:52:21;;;;;;;5.22;4.68;;;15.40;99.90;;;;;;4982431;28;20030;-74
2023/08/06 00:54:47;;;;;;;5.53;5.03;;;15.50;99.90;;;;;;5013059;28;20037;-77
2023/08/06 00:57:14;;;;;;;7.00;5.68;;;15.50;99.90;;;;;;4995487;28;20400;-75
2023/08/06 00:59:40;;;;;;;7.65;6.13;;;15.50;99.90;;;;;;5013080;28;20029;-73
2023/08/06 01:02:07;;;;;;;7.50;6.80;;;15.50;99.90;;;;;;5011747;28;20034;-73
2023/08/06 01:04:33;;;;;;;6.80;6.20;;;15.50;99.90;;;;;;5012092;28;20022;-76
2023/08/06 01:07:21;;;;;;;10.43;6.90;;;15.40;99.90;;;;;;5014735;28;20508;-76
2023/08/06 01:10:19;;;;;;;7.88;7.07;;;15.40;99.90;;;;;;5029376;28;20033;-75
2023/08/06 01:13:17;;;;;;;9.02;6.93;;;15.40;99.90;;;;;;5010151;28;20041;-73
2023/08/06 01:15:54;;;;;;;6.38;5.70;;;15.30;99.90;;;;;;4996558;28;20025;-72
2023/08/06 01:18:21;;;;;;;8.05;6.85;;;15.30;99.90;;;;;;4995583;28;20021;-76
2023/08/06 01:20:49;;;;;;;6.05;5.45;;;15.30;99.90;;;;;;5013387;28;20041;-75
2023/08/06 01:23:16;;;;;;;7.28;6.35;;;15.30;99.90;;;;;;5012133;28;20080;-75
2023/08/06 01:26:01;;;;;;;9.68;8.23;;;15.30;99.90;;;;;;4996321;28;20030;-74
2023/08/06 01:28:55;;;;;;;7.72;6.95;;;15.30;99.90;;;;;;5026671;28;20041;-75
2023/08/06 01:31:27;;;;;;;7.38;6.70;;;15.30;99.90;;;;;;5012009;28;20045;-75
2023/08/06 01:33:56;;;;;;;6.45;5.85;;;15.20;99.90;;;;;;5018095;28;20028;-75
2023/08/06 01:36:23;;;;;;;4.43;4.03;;;15.20;99.90;;;;;;5028822;28;20021;-76
2023/08/06 01:38:52;;;;;;;5.78;5.28;;;15.20;99.90;;;;;;5015788;28;20044;-76
2023/08/06 01:41:19;;;;;;;7.22;6.13;;;15.30;99.90;;;;;;5015173;28;21024;-77
2023/08/06 01:43:45;;;;;;;9.13;8.07;;;15.30;99.90;;;;;;5016385;28;20017;-76
2023/08/06 01:46:11;;;;;;;14.00;12.65;;;15.30;99.90;;;;;;5014829;28;20045;-76
2023/08/06 01:48:39;;;;;;;10.75;8.40;;;15.20;99.90;;;;;;5016242;28;20025;-77
2023/08/06 01:51:05;;;;;;;10.90;9.20;;;15.20;99.90;;;;;;5015853;28;20033;-77
2023/08/06 01:53:33;;;;;;;8.90;8.00;;;15.20;99.90;;;;;;5017363;28;20033;-76
2023/08/06 01:55:59;;;;;;;8.60;7.80;;;15.20;99.90;;;;;;4982833;28;20037;-76
2023/08/06 01:58:26;;;;;;;11.35;10.10;;;15.20;99.90;;;;;;5016005;28;20051;-76
2023/08/06 02:00:52;;;;;;;11.35;10.20;;;15.20;99.90;;;;;;5012763;28;20038;-75
2023/08/06 02:03:18;;;;;;;11.77;10.63;;;15.20;99.90;;;;;;5017105;28;20464;-76
2023/08/06 02:05:45;;;;;;;10.45;9.23;;;15.20;99.90;;;;;;5014192;28;20621;-75
2023/08/06 02:08:12;;;;;;;10.15;9.25;;;15.20;99.90;;;;;;5015611;28;20028;-78
2023/08/06 02:10:39;;;;;;;8.63;7.75;;;15.30;99.90;;;;;;5015585;28;20033;-75
2023/08/06 02:13:07;;;;;;;9.63;8.65;;;15.30;99.90;;;;;;5016561;28;20044;-74
2023/08/06 02:15:33;;;;;;;10.23;9.20;;;15.30;99.90;;;;;;4996698;28;20249;-75
2023/08/06 02:18:00;;;;;;;9.98;8.98;;;15.30;99.90;;;;;;4998372;28;20032;-75
2023/08/06 02:20:26;;;;;;;11.40;9.82;;;15.30;99.90;;;;;;5015804;28;20041;-76
2023/08/06 02:22:53;;;;;;;9.98;8.98;;;15.30;99.90;;;;;;5029411;28;20121;-76
2023/08/06 02:25:19;;;;;;;15.05;12.25;;;15.40;99.90;;;;;;4983216;28;20044;-77
2023/08/06 02:27:45;;;;;;;13.65;11.90;;;15.40;99.90;;;;;;5015040;28;20021;-74
2023/08/06 02:30:11;;;;;;;21.17;18.20;;;15.30;99.90;;;;;;4999801;28;20044;-74
2023/08/06 02:32:40;;;;;;;14.07;12.60;;;15.30;99.90;;;;;;4998244;28;20052;-73
2023/08/06 02:35:07;;;;;;;13.32;11.82;;;15.30;99.90;;;;;;5014250;28;20431;-73
2023/08/06 02:37:34;;;;;;;16.25;13.77;;;15.30;99.90;;;;;;5014948;28;20512;-77
2023/08/06 02:40:01;;;;;;;11.85;10.70;;;15.30;99.90;;;;;;5011129;28;20074;-76
2023/08/06 02:42:27;;;;;;;10.38;9.35;;;15.30;99.90;;;;;;5015731;28;20033;-75
2023/08/06 02:44:56;;;;;;;12.57;10.65;;;15.30;99.90;;;;;;5014312;28;20022;-77
2023/08/06 02:47:23;;;;;;;8.05;7.30;;;15.30;99.90;;;;;;5027317;28;20034;-77
2023/08/06 02:49:50;;;;;;;8.70;7.60;;;15.30;99.90;;;;;;5015732;28;20033;-77
2023/08/06 02:52:17;;;;;;;6.47;5.95;;;15.30;99.90;;;;;;5016269;28;20461;-73
2023/08/06 02:54:46;;;;;;;8.00;6.55;;;15.30;99.90;;;;;;5014804;28;20049;-76
2023/08/06 02:57:14;;;;;;;7.70;6.45;;;15.30;99.90;;;;;;4978988;28;20850;-76
2023/08/06 02:59:40;;;;;;;10.15;6.80;;;15.30;99.90;;;;;;5016006;28;20042;-76
2023/08/06 03:02:15;;;;;;;6.07;5.47;;;15.30;99.90;;;;;;5015178;28;20025;-76
2023/08/06 03:04:56;;;;;;;6.38;5.63;;;15.30;99.90;;;;;;5015279;28;20041;-74
2023/08/06 03:07:26;;;;;;;10.00;7.85;;;15.30;99.90;;;;;;5029969;28;20033;-76
2023/08/06 03:09:57;;;;;;;5.63;5.10;;;15.30;99.90;;;;;;4997375;28;20476;-76
2023/08/06 03:12:24;;;;;;;6.30;5.70;;;15.30;99.90;;;;;;5011805;28;20041;-76
2023/08/06 03:14:52;;;;;;;5.57;5.00;;;15.30;99.90;;;;;;4996800;28;20771;-74
2023/08/06 03:17:19;;;;;;;5.50;4.93;;;15.30;99.90;;;;;;4995837;28;20041;-75
2023/08/06 03:19:45;;;;;;;6.28;5.63;;;15.20;99.90;;;;;;5014298;28;20479;-76
2023/08/06 03:22:12;;;;;;;6.10;5.38;;;15.30;99.90;;;;;;5015934;28;20030;-74
2023/08/06 03:24:39;;;;;;;6.15;5.55;;;15.20;99.90;;;;;;5015399;28;20056;-75
2023/08/06 03:27:06;;;;;;;7.75;6.10;;;15.20;99.90;;;;;;5014651;28;20036;-75
2023/08/06 03:29:32;;;;;;;6.50;4.65;;;15.20;99.90;;;;;;5012773;28;20029;-76
2023/08/06 03:32:01;;;;;;;5.32;4.68;;;15.20;99.90;;;;;;4998073;28;20591;-74
2023/08/06 03:34:28;;;;;;;5.65;4.82;;;15.30;99.90;;;;;;5015112;28;20033;-74
2023/08/06 03:36:55;;;;;;;5.65;4.72;;;15.20;99.90;;;;;;5025820;28;20040;-76
2023/08/06 03:39:21;;;;;;;6.85;6.15;;;15.30;99.90;;;;;;5013825;28;20029;-74
2023/08/06 03:41:48;;;;;;;7.88;6.47;;;15.30;99.90;;;;;;5013863;28;20389;-74
2023/08/06 03:44:15;;;;;;;9.27;7.60;;;15.30;99.90;;;;;;4997192;28;20026;-75
2023/08/06 03:46:42;;;;;;;6.22;5.13;;;15.30;99.90;;;;;;4995833;28;20053;-73
2023/08/06 03:49:09;;;;;;;6.80;4.68;;;15.30;99.90;;;;;;5011644;28;20044;-76
2023/08/06 03:51:35;;;;;;;6.10;4.78;;;15.30;99.90;;;;;;5015801;28;20407;-76
2023/08/06 03:54:02;;;;;;;5.70;4.78;;;15.30;99.90;;;;;;4996918;28;20048;-76
2023/08/06 03:56:30;;;;;;;4.68;4.18;;;15.30;99.90;;;;;;4996292;28;20034;-76
2023/08/06 03:58:57;;;;;;;6.15;5.22;;;15.30;99.90;;;;;;5009001;28;20034;-75
2023/08/06 04:01:24;;;;;;;7.22;5.25;;;15.30;99.90;;;;;;4997378;28;20029;-77
2023/08/06 04:03:50;;;;;;;5.75;5.00;;;15.40;99.90;;;;;;4996869;28;20044;-74
2023/08/06 04:06:17;;;;;;;5.80;5.20;;;15.30;99.90;;;;;;4995529;28;20045;-75
2023/08/06 04:08:43;;;;;;;6.63;5.82;;;15.40;99.90;;;;;;4995587;28;20040;-75
2023/08/06 04:11:10;;;;;;;6.22;5.63;;;15.40;99.90;;;;;;5013963;28;20025;-76
2023/08/06 04:13:36;;;;;;;6.22;5.63;;;15.40;99.90;;;;;;5013166;28;20026;-75
2023/08/06 04:16:03;;;;;;;8.55;6.80;;;15.40;99.90;;;;;;5027186;28;20034;-75
2023/08/06 04:18:31;;;;;;;6.95;5.70;;;15.50;99.90;;;;;;5026634;28;20029;-75
2023/08/06 04:20:58;;;;;;;6.65;6.00;;;15.50;99.90;;;;;;5010237;28;20021;-75
2023/08/06 04:23:25;;;;;;;7.65;6.68;;;15.50;99.90;;;;;;4997437;28;20067;-76
2023/08/06 04:25:58;;;;;;;8.23;7.43;;;15.50;99.90;;;;;;5013159;28;20037;-73
2023/08/06 04:28:27;;;;;;;6.93;6.15;;;15.50;99.90;;;;;;5011149;28;20029;-76
2023/08/06 04:30:54;;;;;;;8.88;7.55;;;15.50;99.90;;;;;;5012589;28;20033;-76
2023/08/06 04:33:21;;;;;;;9.10;7.60;;;15.50;99.90;;;;;;4995450;28;20388;-76
2023/08/06 04:35:53;;;;;;;8.77;7.55;;;15.50;99.90;;;;;;4996743;28;20037;-75
2023/08/06 04:38:19;;;;;;;10.70;9.25;;;15.50;99.90;;;;;;5013050;28;20013;-77
2023/08/06 04:40:45;;;;;;;9.25;8.35;;;15.50;99.90;;;;;;5012379;28;20075;-77
2023/08/06 04:43:13;;;;;;;10.32;9.25;;;15.50;99.90;;;;;;5014587;28;20040;-76
2023/08/06 04:45:46;;;;;;;10.63;8.70;;;15.50;99.90;;;;;;4989199;28;20061;-74
2023/08/06 04:48:13;;;;;;;14.02;11.90;;;15.50;99.90;;;;;;5014240;28;20029;-76
2023/08/06 04:50:46;;;;;;;9.63;8.63;;;15.50;99.90;;;;;;4996963;28;20625;-76
2023/08/06 04:53:13;;;;;;;10.32;8.48;;;15.50;99.90;;;;;;5012417;28;20432;-76
2023/08/06 04:55:39;;;;;;;7.95;7.15;;;15.50;99.90;;;;;;5010474;28;20029;-76
2023/08/06 04:58:06;;;;;;;8.60;7.55;;;15.60;99.90;;;;;;4996587;28;20038;-73
2023/08/06 05:00:33;;;;;;;8.43;7.60;;;15.60;99.90;;;;;;5014957;28;20346;-76
2023/08/06 05:03:03;;;;;;;10.20;9.20;;;15.70;99.90;;;;;;4997410;28;20045;-73
2023/08/06 05:05:30;;;;;;;9.43;8.43;;;15.70;99.90;;;;;;5017657;28;21284;-76
2023/08/06 05:07:57;;;;;;;9.02;8.20;;;15.70;99.90;;;;;;4999819;28;20048;-75
2023/08/06 05:10:27;;;;;;;10.55;9.52;;;15.80;99.90;;;;;;5032399;28;20041;-76
2023/08/06 05:12:54;;;;;;;10.35;9.35;;;15.80;99.90;;;;;;5015875;28;20059;-77
2023/08/06 05:15:20;;;;;;;12.32;10.40;;;15.80;99.90;;;;;;5018425;28;20044;-75
2023/08/06 05:17:47;;;;;;;12.60;11.35;;;15.80;99.90;;;;;;5018283;28;20021;-75
2023/08/06 05:20:13;;;;;;;12.55;11.25;;;15.80;99.90;;;;;;5031756;28;20025;-76
2023/08/06 05:22:39;;;;;;;13.50;10.60;;;15.90;99.90;;;;;;4998964;28;20029;-75
2023/08/06 05:25:06;;;;;;;12.00;10.77;;;16.00;99.90;;;;;;5017388;28;21632;-77
2023/08/06 05:27:33;;;;;;;12.95;10.38;;;16.00;99.90;;;;;;5017665;28;20040;-76
2023/08/06 05:30:00;;;;;;;15.45;13.80;;;16.10;99.90;;;;;;5014095;28;20046;-77
2023/08/06 05:32:26;;;;;;;18.20;16.30;;;16.20;99.90;;;;;;4998208;28;20037;-75
2023/08/06 05:34:53;;;;;;;18.80;16.85;;;16.20;99.90;;;;;;5012741;28;20042;-76
2023/08/06 05:37:19;;;;;;;17.90;15.90;;;16.30;99.90;;;;;;5017699;28;20029;-76
2023/08/06 05:39:46;;;;;;;23.65;19.13;;;16.30;99.90;;;;;;5015635;28;20041;-77
2023/08/06 05:42:12;;;;;;;18.30;15.77;;;16.30;99.90;;;;;;5014516;28;20028;-73
2023/08/06 05:44:38;;;;;;;18.77;16.35;;;16.40;99.90;;;;;;4999089;28;20033;-75
2023/08/06 05:47:05;;;;;;;21.50;17.83;;;16.40;99.90;;;;;;5030348;28;20082;-76
2023/08/06 05:49:31;;;;;;;21.30;19.00;;;16.40;99.90;;;;;;5016812;28;20032;-76
2023/08/06 05:51:58;;;;;;;20.90;18.58;;;16.40;99.90;;;;;;5015653;28;20041;-75
2023/08/06 05:54:24;;;;;;;18.65;16.63;;;16.50;99.90;;;;;;5017656;28;20024;-73
2023/08/06 05:56:50;;;;;;;18.25;16.42;;;16.50;99.90;;;;;;5015938;28;20033;-75
2023/08/06 05:59:16;;;;;;;25.67;22.75;;;16.50;99.90;;;;;;5016781;28;20044;-76
2023/08/06 06:01:43;;;;;;;21.60;19.20;;;16.50;99.90;;;;;;5014431;28;20044;-75
2023/08/06 06:04:09;;;;;;;19.15;17.15;;;16.50;99.90;;;;;;5015793;28;20487;-74
2023/08/06 06:06:35;;;;;;;20.25;17.98;;;16.60;99.90;;;;;;4999525;28;20030;-73
2023/08/06 06:09:02;;;;;;;18.67;16.75;;;16.60;99.90;;;;;;5014589;28;20064;-75
2023/08/06 06:11:29;;;;;;;20.08;18.05;;;16.60;99.90;;;;;;5017127;28;20049;-74
2023/08/06 06:13:56;;;;;;;16.95;15.20;;;16.50;99.90;;;;;;5015841;28;20042;-73
2023/08/06 06:16:22;;;;;;;16.58;14.77;;;16.60;99.90;;;;;;5015232;28;20396;-72
2023/08/06 06:18:49;;;;;;;16.42;14.27;;;16.50;99.90;;;;;;5015760;28;20511;-75
2023/08/06 06:21:15;;;;;;;15.52;13.93;;;16.50;99.90;;;;;;5014659;28;20041;-76
2023/08/06 06:23:41;;;;;;;14.20;12.70;;;16.50;99.90;;;;;;5010306;28;20038;-75
2023/08/06 06:26:08;;;;;;;16.65;14.38;;;16.60;99.90;;;;;;5030140;28;20380;-76
2023/08/06 06:28:34;;;;;;;16.67;14.05;;;16.60;99.90;;;;;;5016201;28;20408;-73
2023/08/06 06:31:01;;;;;;;19.33;16.33;;;16.70;99.90;;;;;;5017115;28;20026;-76
2023/08/06 06:33:28;;;;;;;16.45;14.82;;;16.70;99.90;;;;;;5016733;28;20037;-75
2023/08/06 06:35:54;;;;;;;17.60;15.80;;;16.70;99.90;;;;;;5015256;28;20013;-73
2023/08/06 06:38:21;;;;;;;14.23;12.75;;;16.70;99.90;;;;;;5016369;28;20375;-74
2023/08/06 06:40:54;;;;;;;16.15;14.55;;;16.70;99.90;;;;;;5016743;28;22677;-76
2023/08/06 06:43:21;;;;;;;13.55;12.15;;;16.70;99.90;;;;;;5029312;28;20041;-75
2023/08/06 06:45:52;;;;;;;14.07;12.68;;;16.80;99.90;;;;;;5014385;28;20045;-74
2023/08/06 06:48:18;;;;;;;12.45;11.15;;;16.80;99.90;;;;;;5030722;28;20037;-75
2023/08/06 06:50:48;;;;;;;12.52;11.32;;;16.90;99.90;;;;;;5015970;28;20033;-74
2023/08/06 06:53:14;;;;;;;11.77;10.68;;;16.80;99.90;;;;;;4996996;28;20476;-76
2023/08/06 06:55:44;;;;;;;13.68;12.38;;;16.80;99.90;;;;;;5016259;28;20048;-74
2023/08/06 06:58:10;;;;;;;12.65;11.43;;;16.90;99.90;;;;;;4999891;28;20285;-76
2023/08/06 07:00:37;;;;;;;11.15;10.00;;;16.80;99.90;;;;;;5014760;28;20617;-73
2023/08/06 07:03:03;;;;;;;12.48;11.18;;;16.80;99.90;;;;;;4998031;28;22723;-77
2023/08/06 07:05:30;;;;;;;10.38;9.38;;;16.80;99.90;;;;;;5015405;28;20034;-76
2023/08/06 07:07:56;;;;;;;13.20;11.90;;;16.70;99.90;;;;;;5016205;28;20034;-75
2023/08/06 07:10:23;;;;;;;10.43;9.52;;;16.70;99.90;;;;;;5014778;28;20029;-76
2023/08/06 07:12:49;;;;;;;10.27;9.38;;;16.70;99.90;;;;;;5015952;28;20400;-75
2023/08/06 07:15:17;;;;;;;12.15;11.00;;;16.80;99.90;;;;;;5016167;28;20037;-74
2023/08/06 07:17:44;;;;;;;8.40;7.53;;;16.70;99.90;;;;;;5015578;28;20040;-76
2023/08/06 07:20:11;;;;;;;10.50;9.45;;;16.70;99.90;;;;;;5015602;28;20029;-75
2023/08/06 07:22:37;;;;;;;11.20;10.20;;;16.80;99.90;;;;;;5014790;28;20044;-75
2023/08/06 07:25:04;;;;;;;10.65;9.55;;;16.80;99.90;;;;;;5014434;28;20039;-75
2023/08/06 07:27:31;;;;;;;9.55;8.65;;;16.80;99.90;;;;;;5012087;28;20034;-74
2023/08/06 07:29:58;;;;;;;12.43;11.18;;;16.90;99.90;;;;;;5016461;28;20039;-74
2023/08/06 07:32:24;;;;;;;10.93;9.90;;;16.90;99.90;;;;;;5014779;28;20030;-76
2023/08/06 07:34:56;;;;;;;9.43;8.57;;;16.90;99.90;;;;;;5015788;28;20037;-75
2023/08/06 07:37:23;;;;;;;8.90;8.10;;;16.90;99.90;;;;;;5014100;28;20095;-75
2023/08/06 07:39:50;;;;;;;13.82;12.38;;;17.00;99.90;;;;;;4997175;28;20051;-73
2023/08/06 07:42:20;;;;;;;11.15;9.98;;;17.00;99.90;;;;;;5014083;28;20033;-77
2023/08/06 07:44:54;;;;;;;10.20;9.27;;;17.00;99.90;;;;;;5013591;28;20037;-75
2023/08/06 07:47:21;;;;;;;15.43;13.90;;;17.00;99.90;;;;;;4995841;28;20030;-76
2023/08/06 07:49:47;;;;;;;11.48;10.15;;;17.00;99.90;;;;;;5013480;28;20036;-74
2023/08/06 07:52:14;;;;;;;10.38;9.45;;;16.90;99.90;;;;;;5014593;28;20036;-76
2023/08/06 07:54:41;;;;;;;11.25;10.07;;;16.90;99.90;;;;;;5014424;28;20037;-76
2023/08/06 07:57:07;;;;;;;12.65;11.55;;;16.90;99.90;;;;;;5014699;28;20056;-75
2023/08/06 07:59:33;;;;;;;10.63;9.63;;;16.90;99.90;;;;;;5013128;28;20728;-75
2023/08/06 08:02:02;;;;;;;13.02;11.82;;;16.90;99.90;;;;;;5014406;28;20025;-75
2023/08/06 08:04:28;;;;;;;10.88;9.88;;;17.00;99.90;;;;;;5027166;28;20026;-77
2023/08/06 08:06:55;;;;;;;15.25;13.65;;;17.00;99.90;;;;;;5013304;28;20041;-77
2023/08/06 08:09:21;;;;;;;13.52;12.27;;;17.00;99.90;;;;;;5013179;28;20029;-73
2023/08/06 08:11:47;;;;;;;14.02;12.65;;;17.00;99.90;;;;;;5014236;28;20512;-76
2023/08/06 08:14:14;;;;;;;14.25;12.85;;;17.10;99.90;;;;;;5013422;28;20041;-74
2023/08/06 08:16:40;;;;;;;12.98;11.82;;;17.10;99.90;;;;;;4996088;28;20076;-75
2023/08/06 08:19:06;;;;;;;13.38;12.10;;;17.20;99.90;;;;;;5015601;28;20350;-76
2023/08/06 08:21:32;;;;;;;13.45;12.25;;;17.20;99.90;;;;;;5014142;28;20017;-73
2023/08/06 08:24:01;;;;;;;13.85;12.50;;;17.40;99.90;;;;;;5026568;28;20456;-76
2023/08/06 08:26:27;;;;;;;17.80;16.10;;;17.50;99.90;;;;;;5011095;28;20487;-76
2023/08/06 08:28:54;;;;;;;13.95;12.55;;;17.50;99.90;;;;;;5015157;28;20037;-74
2023/08/06 08:31:20;;;;;;;14.85;13.48;;;17.60;99.90;;;;;;5013208;28;20340;-76
2023/08/06 08:33:47;;;;;;;15.77;14.18;;;17.70;99.90;;;;;;4997188;28;20045;-77
2023/08/06 08:36:13;;;;;;;13.45;12.07;;;17.60;99.90;;;;;;5014547;28;20025;-78
2023/08/06 08:38:39;;;;;;;12.98;11.73;;;17.70;99.90;;;;;;4996521;28;20045;-76
2023/08/06 08:41:06;;;;;;;15.18;13.73;;;17.70;99.90;;;;;;5013145;28;20703;-74
2023/08/06 08:43:33;;;;;;;14.43;13.13;;;17.80;99.90;;;;;;5012652;28;20033;-76
2023/08/06 08:46:02;;;;;;;17.48;15.70;;;17.80;99.90;;;;;;5015344;28;20041;-80
2023/08/06 08:48:30;;;;;;;17.73;16.13;;;17.80;99.90;;;;;;5015593;28;20111;-75
2023/08/06 08:50:57;;;;;;;14.68;12.90;;;17.80;99.90;;;;;;5027374;28;20492;-75
2023/08/06 08:53:25;;;;;;;12.65;11.50;;;17.80;99.90;;;;;;5030842;28;20025;-73
2023/08/06 08:55:52;;;;;;;11.65;10.45;;;18.00;99.90;;;;;;5015095;28;20042;-74
2023/08/06 08:58:18;;;;;;;17.13;15.43;;;18.00;99.90;;;;;;5017970;28;20372;-73
2023/08/06 09:00:48;;;;;;;13.50;12.10;;;18.00;99.90;;;;;;4997736;28;20032;-72
2023/08/06 09:03:14;;;;;;;14.20;12.70;;;18.10;99.90;;;;;;5015895;28;20431;-74
2023/08/06 09:05:44;;;;;;;13.88;12.52;;;18.30;99.90;;;;;;4995409;28;20029;-74
2023/08/06 09:08:12;;;;;;;15.57;14.02;;;18.40;99.90;;;;;;5015431;28;20032;-74
2023/08/06 09:10:41;;;;;;;11.30;10.18;;;18.40;99.90;;;;;;4999002;28;20056;-74
2023/08/06 09:13:08;;;;;;;9.52;8.57;;;18.50;99.90;;;;;;5016460;28;20021;-75
2023/08/06 09:15:35;;;;;;;10.25;9.25;;;18.60;99.90;;;;;;5024821;28;20349;-73
2023/08/06 09:18:10;;;;;;;9.80;9.00;;;18.70;99.90;;;;;;5015307;28;20527;-75
2023/08/06 09:20:40;;;;;;;9.32;8.52;;;18.80;99.90;;;;;;5014472;28;20040;-75
2023/08/06 09:23:10;;;;;;;8.95;8.05;;;18.90;99.90;;;;;;5015668;28;20045;-75
2023/08/06 09:25:40;;;;;;;10.57;9.68;;;18.90;99.90;;;;;;5015559;28;20731;-74
2023/08/06 09:28:07;;;;;;;6.88;6.28;;;18.90;99.90;;;;;;5015962;28;20034;-74
2023/08/06 09:30:37;;;;;;;8.63;7.82;;;18.80;99.90;;;;;;5017429;28;20025;-74
2023/08/06 09:33:03;;;;;;;8.57;7.63;;;18.70;99.90;;;;;;5014273;28;20040;-74
2023/08/06 09:35:31;;;;;;;8.30;7.50;;;18.60;99.90;;;;;;5014824;28;20300;-74
2023/08/06 09:38:08;;;;;;;7.88;7.18;;;18.50;99.90;;;;;;5009214;28;20133;-73
2023/08/06 09:40:35;;;;;;;8.13;7.07;;;18.40;99.90;;;;;;5026889;28;20059;-74
2023/08/06 09:43:01;;;;;;;7.75;6.93;;;18.30;99.90;;;;;;5012544;28;20392;-75
2023/08/06 09:45:38;;;;;;;6.68;6.18;;;18.20;99.90;;;;;;5013913;28;20038;-74
2023/08/06 09:48:09;;;;;;;5.95;5.45;;;18.10;99.90;;;;;;5015872;28;20041;-75
2023/08/06 09:50:37;;;;;;;7.05;6.45;;;18.00;99.90;;;;;;4985201;28;20030;-76
2023/08/06 09:53:05;;;;;;;6.88;6.22;;;17.90;99.90;;;;;;5014873;28;20037;-72
2023/08/06 09:55:32;;;;;;;10.50;9.50;;;17.80;99.90;;;;;;5016717;28;20037;-74
2023/08/06 09:57:59;;;;;;;8.23;7.53;;;17.60;99.90;;;;;;5015369;28;20401;-74
2023/08/06 10:00:26;;;;;;;9.98;9.07;;;17.50;99.90;;;;;;5014158;28;20033;-74
2023/08/06 10:02:55;;;;;;;7.90;7.20;;;17.40;99.90;;;;;;5015184;28;20416;-74
2023/08/06 10:05:23;;;;;;;8.85;8.05;;;17.40;99.90;;;;;;5030259;28;20033;-73
2023/08/06 10:07:53;;;;;;;7.55;6.88;;;17.20;99.90;;;;;;5015949;28;20025;-74
2023/08/06 10:10:19;;;;;;;7.93;7.18;;;17.10;99.90;;;;;;5016640;28;20021;-73
2023/08/06 10:12:51;;;;;;;10.30;9.25;;;17.00;99.90;;;;;;5017237;28;20049;-74
2023/08/06 10:15:29;;;;;;;9.27;7.70;;;16.90;99.90;;;;;;5018255;28;20037;-75
2023/08/06 10:17:59;;;;;;;9.15;8.35;;;16.80;99.90;;;;;;5015682;28;20365;-76
2023/08/06 10:20:25;;;;;;;11.77;10.60;;;16.70;99.90;;;;;;5018733;28;20029;-74
2023/08/06 10:23:07;;;;;;;10.98;10.00;;;16.70;99.90;;;;;;5018225;28;20484;-74
2023/08/06 10:25:35;;;;;;;13.75;12.40;;;16.70;99.90;;;;;;4998282;28;20033;-75
2023/08/06 10:28:11;;;;;;;16.65;14.95;;;16.70;99.90;;;;;;4998569;28;20041;-76
2023/08/06 10:30:47;;;;;;;16.70;14.70;;;16.70;99.90;;;;;;5029154;28;20049;-75
2023/08/06 10:33:13;;;;;;;19.13;17.23;;;16.70;99.90;;;;;;5017573;28;20026;-75
2023/08/06 10:35:45;;;;;;;18.10;16.30;;;16.60;99.90;;;;;;5016518;28;20036;-75
2023/08/06 10:38:21;;;;;;;21.75;19.38;;;16.60;99.90;;;;;;5018024;28;20030;-76
2023/08/06 10:40:53;;;;;;;27.25;24.40;;;16.60;99.90;;;;;;5030965;28;20037;-73
2023/08/06 10:43:33;;;;;;;;;;;16.60;99.90;;;;;;5018268;28;20021;-74
2023/08/06 10:46:06;;;;;;;9.70;8.30;;;16.40;99.90;;;;;;5027717;28;20272;-73
2023/08/06 10:48:36;;;;;;;3.72;3.40;;;16.30;99.90;;;;;;5016455;28;20033;-73
2023/08/06 10:51:04;;;;;;;2.65;2.20;;;16.10;99.90;;;;;;5016395;28;20894;-73
2023/08/06 10:53:30;;;;;;;3.13;1.13;;;16.00;99.90;;;;;;5017749;28;20036;-74
2023/08/06 10:55:58;;;;;;;1.77;1.00;;;15.90;99.90;;;;;;5019977;28;20029;-74
2023/08/06 10:58:24;;;;;;;1.85;0.77;;;15.80;99.90;;;;;;5016627;28;20409;-73
2023/08/06 11:00:51;;;;;;;1.05;0.60;;;15.70;99.90;;;;;;5016683;28;20021;-74
2023/08/06 11:03:18;;;;;;;0.88;0.57;;;15.60;99.90;;;;;;5016790;28;20369;-73
2023/08/06 11:05:50;;;;;;;2.60;0.60;;;15.50;99.90;;;;;;5012748;28;20033;-72
2023/08/06 11:08:47;;;;;;;1.80;0.68;;;15.40;99.90;;;;;;5014281;28;20472;-73
2023/08/06 11:11:16;;;;;;;1.40;0.80;;;15.40;99.90;;;;;;5029099;28;20045;-73
2023/08/06 11:13:44;;;;;;;1.23;0.80;;;15.40;99.90;;;;;;5016663;28;20127;-73
2023/08/06 11:16:10;;;;;;;1.42;0.80;;;15.30;99.90;;;;;;4999445;28;20029;-74
2023/08/06 11:18:37;;;;;;;1.77;0.90;;;15.30;99.90;;;;;;5016063;28;20040;-74
2023/08/06 11:21:03;;;;;;;1.80;1.13;;;15.30;99.90;;;;;;5016700;28;20353;-74
2023/08/06 11:23:30;;;;;;;1.40;0.73;;;15.30;99.90;;;;;;5017239;28;20044;-74
2023/08/06 11:25:57;;;;;;;1.40;0.80;;;15.20;99.90;;;;;;5016145;28;20041;-74
2023/08/06 11:28:24;;;;;;;1.95;0.93;;;15.20;99.90;;;;;;5014724;28;20112;-76
2023/08/06 11:30:50;;;;;;;2.30;1.25;;;15.20;99.90;;;;;;5027860;28;20500;-75
2023/08/06 11:33:25;;;;;;;1.80;1.27;;;15.20;99.90;;;;;;5016070;28;20400;-77
2023/08/06 11:35:52;;;;;;;1.67;1.10;;;15.10;99.90;;;;;;5014207;28;20025;-76
2023/08/06 11:38:19;;;;;;;2.50;1.60;;;15.10;99.90;;;;;;5028436;28;20038;-75
2023/08/06 11:40:45;;;;;;;2.78;1.00;;;15.10;99.90;;;;;;5016362;28;20422;-73
2023/08/06 11:43:15;;;;;;;3.33;1.85;;;15.10;99.90;;;;;;5030082;28;20416;-76
2023/08/06 11:45:41;;;;;;;5.63;1.92;;;15.10;99.90;;;;;;5014320;28;20387;-75
2023/08/06 11:48:10;;;;;;;2.85;2.13;;;15.10;99.90;;;;;;4985864;28;20048;-73
2023/08/06 11:50:40;;;;;;;2.33;1.90;;;15.00;99.90;;;;;;5016368;28;20037;-75
2023/08/06 11:53:07;;;;;;;2.65;1.77;;;15.10;99.90;;;;;;5014001;28;20096;-75
2023/08/06 11:55:35;;;;;;;2.15;1.20;;;15.00;99.90;;;;;;5015248;28;20048;-74
2023/08/06 11:58:04;;;;;;;2.95;1.70;;;15.00;99.90;;;;;;5014469;28;20117;-75
2023/08/06 12:00:31;;;;;;;3.08;1.48;;;15.00;99.90;;;;;;5015002;28;20032;-75
2023/08/06 12:02:57;;;;;;;2.13;1.63;;;15.00;99.90;;;;;;5018447;28;20400;-75
2023/08/06 12:05:31;;;;;;;3.00;1.63;;;15.00;99.90;;;;;;5014709;28;20629;-74
2023/08/06 12:07:59;;;;;;;2.58;1.77;;;14.90;99.90;;;;;;5013792;28;20030;-75
2023/08/06 12:10:28;;;;;;;2.35;1.85;;;14.90;99.90;;;;;;5012541;28;20025;-75
2023/08/06 12:12:54;;;;;;;4.18;2.90;;;14.80;99.90;;;;;;5014194;28;20041;-75
2023/08/06 12:15:21;;;;;;;4.90;3.20;;;14.90;99.90;;;;;;5013816;28;20030;-74
2023/08/06 12:17:48;;;;;;;4.63;3.65;;;14.80;99.90;;;;;;5013395;28;20053;-74
2023/08/06 12:20:15;;;;;;;5.82;3.15;;;14.80;99.90;;;;;;4997910;28;20320;-78
2023/08/06 12:22:41;;;;;;;6.50;3.88;;;14.80;99.90;;;;;;5014382;28;20029;-76
2023/08/06 12:25:11;;;;;;;3.30;2.80;;;14.80;99.90;;;;;;5013001;28;20048;-76
2023/08/06 12:27:42;;;;;;;5.85;4.30;;;14.80;99.90;;;;;;4999158;28;20915;-75
2023/08/06 12:30:09;;;;;;;6.85;4.97;;;14.70;99.90;;;;;;5011017;28;20048;-75
2023/08/06 12:32:36;;;;;;;5.07;3.60;;;14.70;99.90;;;;;;5014504;28;20037;-77
2023/08/06 12:35:02;;;;;;;4.00;2.70;;;14.70;99.90;;;;;;4997020;28;20487;-75
2023/08/06 12:37:31;;;;;;;6.47;3.63;;;14.70;99.90;;;;;;5012323;28;20022;-76
2023/08/06 12:39:57;;;;;;;5.45;3.85;;;14.70;99.90;;;;;;5012282;28;20233;-76
2023/08/06 12:42:24;;;;;;;10.32;5.53;;;14.70;99.90;;;;;;5013893;28;20041;-75